sensor_id;sensor_type;location;lat;lon;timestamp;P1;durP1;ratioP1;P2;durP2;ratioP2
5299;SDS011;2672;42.670;23.258;2023-02-21T00:00:51;1.10;;;1.00;;
5299;SDS011;2672;42.670;23.258;2023-02-21T00:03:35;1.10;;;1.00;;
5299;SDS011;2672;42.670;23.258;2023-02-21T00:06:19;1.53;;;1.43;;
5299;SDS011;2672;42.670;23.258;2023-02-21T00:09:03;1.70;;;1.20;;
5299;SDS011;2672;42.670;23.258;2023-02-21T00:11:47;1.70;;;1.17;;
5299;SDS011;2672;42.670;23.258;2023-02-21T00:14:31;1.23;;;1.13;;
5299;SDS011;2672;42.670;23.258;2023-02-21T00:17:15;2.87;;;1.07;;
5299;SDS011;2672;42.670;23.258;2023-02-21T00:19:59;1.37;;;1.27;;
5299;SDS011;2672;42.670;23.258;2023-02-21T00:22:43;1.30;;;1.17;;
5299;SDS011;2672;42.670;23.258;2023-02-21T00:25:27;1.57;;;1.20;;
5299;SDS011;2672;42.670;23.258;2023-02-21T00:28:11;5.97;;;0.97;;
5299;SDS011;2672;42.670;23.258;2023-02-21T00:30:55;1.50;;;1.33;;
5299;SDS011;2672;42.670;23.258;2023-02-21T00:33:39;1.00;;;1.00;;
5299;SDS011;2672;42.670;23.258;2023-02-21T00:36:23;1.30;;;1.20;;
5299;SDS011;2672;42.670;23.258;2023-02-21T00:39:07;0.63;;;0.63;;
5299;SDS011;2672;42.670;23.258;2023-02-21T00:41:51;1.43;;;1.23;;
5299;SDS011;2672;42.670;23.258;2023-02-21T00:44:35;1.30;;;1.20;;
5299;SDS011;2672;42.670;23.258;2023-02-21T00:47:19;0.83;;;0.83;;
5299;SDS011;2672;42.670;23.258;2023-02-21T00:50:03;1.37;;;1.07;;
5299;SDS011;2672;42.670;23.258;2023-02-21T00:52:47;1.87;;;1.30;;
5299;SDS011;2672;42.670;23.258;2023-02-21T00:55:31;1.40;;;1.27;;
5299;SDS011;2672;42.670;23.258;2023-02-21T00:58:15;1.17;;;1.07;;
5299;SDS011;2672;42.670;23.258;2023-02-21T01:00:59;3.03;;;1.17;;
5299;SDS011;2672;42.670;23.258;2023-02-21T01:03:42;1.50;;;1.03;;
5299;SDS011;2672;42.670;23.258;2023-02-21T01:06:26;1.40;;;1.30;;
5299;SDS011;2672;42.670;23.258;2023-02-21T01:09:10;1.80;;;1.10;;
5299;SDS011;2672;42.670;23.258;2023-02-21T01:11:54;1.47;;;1.10;;
5299;SDS011;2672;42.670;23.258;2023-02-21T01:14:38;1.50;;;1.40;;
5299;SDS011;2672;42.670;23.258;2023-02-21T01:17:22;5.73;;;2.80;;
5299;SDS011;2672;42.670;23.258;2023-02-21T01:20:06;7.57;;;3.20;;
5299;SDS011;2672;42.670;23.258;2023-02-21T01:22:50;5.17;;;3.10;;
5299;SDS011;2672;42.670;23.258;2023-02-21T01:25:34;3.67;;;2.47;;
5299;SDS011;2672;42.670;23.258;2023-02-21T01:28:18;5.23;;;3.50;;
5299;SDS011;2672;42.670;23.258;2023-02-21T01:31:02;7.17;;;3.40;;
5299;SDS011;2672;42.670;23.258;2023-02-21T01:33:45;6.77;;;3.10;;
5299;SDS011;2672;42.670;23.258;2023-02-21T01:36:29;7.67;;;3.97;;
5299;SDS011;2672;42.670;23.258;2023-02-21T01:39:13;8.10;;;3.80;;
5299;SDS011;2672;42.670;23.258;2023-02-21T01:41:58;6.77;;;4.33;;
5299;SDS011;2672;42.670;23.258;2023-02-21T01:44:44;6.70;;;3.87;;
5299;SDS011;2672;42.670;23.258;2023-02-21T01:47:29;7.03;;;4.40;;
5299;SDS011;2672;42.670;23.258;2023-02-21T01:50:31;7.70;;;4.30;;
5299;SDS011;2672;42.670;23.258;2023-02-21T01:53:16;6.27;;;3.80;;
5299;SDS011;2672;42.670;23.258;2023-02-21T01:56:01;8.00;;;4.07;;
5299;SDS011;2672;42.670;23.258;2023-02-21T01:58:45;6.60;;;3.90;;
5299;SDS011;2672;42.670;23.258;2023-02-21T02:01:44;5.73;;;3.70;;
5299;SDS011;2672;42.670;23.258;2023-02-21T02:04:30;7.80;;;3.50;;
5299;SDS011;2672;42.670;23.258;2023-02-21T02:07:14;7.07;;;3.70;;
5299;SDS011;2672;42.670;23.258;2023-02-21T02:09:58;5.67;;;3.50;;
5299;SDS011;2672;42.670;23.258;2023-02-21T02:13:26;8.73;;;3.83;;
5299;SDS011;2672;42.670;23.258;2023-02-21T02:28:14;7.20;;;3.93;;
5299;SDS011;2672;42.670;23.258;2023-02-21T02:33:24;8.03;;;3.90;;
5299;SDS011;2672;42.670;23.258;2023-02-21T02:36:35;5.90;;;3.97;;
5299;SDS011;2672;42.670;23.258;2023-02-21T02:38:56;6.77;;;4.20;;
5299;SDS011;2672;42.670;23.258;2023-02-21T02:41:27;9.07;;;4.53;;
5299;SDS011;2672;42.670;23.258;2023-02-21T02:46:30;6.00;;;3.60;;
5299;SDS011;2672;42.670;23.258;2023-02-21T02:51:25;5.47;;;3.80;;
5299;SDS011;2672;42.670;23.258;2023-02-21T02:53:51;7.20;;;4.40;;
5299;SDS011;2672;42.670;23.258;2023-02-21T02:56:16;9.33;;;4.63;;
5299;SDS011;2672;42.670;23.258;2023-02-21T03:06:46;7.13;;;3.20;;
5299;SDS011;2672;42.670;23.258;2023-02-21T03:09:15;12.73;;;4.50;;
5299;SDS011;2672;42.670;23.258;2023-02-21T03:12:04;4.70;;;3.50;;
5299;SDS011;2672;42.670;23.258;2023-02-21T03:15:16;4.57;;;3.33;;
5299;SDS011;2672;42.670;23.258;2023-02-21T03:17:21;10.18;;;3.58;;
5299;SDS011;2672;42.670;23.258;2023-02-21T03:19:47;7.03;;;3.60;;
5299;SDS011;2672;42.670;23.258;2023-02-21T03:22:15;8.77;;;3.13;;
5299;SDS011;2672;42.670;23.258;2023-02-21T03:24:43;7.97;;;3.50;;
5299;SDS011;2672;42.670;23.258;2023-02-21T03:27:09;5.30;;;3.73;;
5299;SDS011;2672;42.670;23.258;2023-02-21T03:29:36;3.90;;;3.00;;
5299;SDS011;2672;42.670;23.258;2023-02-21T03:32:05;4.43;;;3.07;;
5299;SDS011;2672;42.670;23.258;2023-02-21T03:34:34;4.07;;;3.40;;
5299;SDS011;2672;42.670;23.258;2023-02-21T03:37:00;5.33;;;3.10;;
5299;SDS011;2672;42.670;23.258;2023-02-21T03:39:25;5.00;;;2.77;;
5299;SDS011;2672;42.670;23.258;2023-02-21T03:41:50;3.87;;;2.60;;
5299;SDS011;2672;42.670;23.258;2023-02-21T03:44:15;4.10;;;1.93;;
5299;SDS011;2672;42.670;23.258;2023-02-21T03:46:42;2.73;;;2.53;;
5299;SDS011;2672;42.670;23.258;2023-02-21T03:49:07;2.27;;;1.83;;
5299;SDS011;2672;42.670;23.258;2023-02-21T03:51:32;3.80;;;1.80;;
5299;SDS011;2672;42.670;23.258;2023-02-21T03:53:57;5.20;;;2.17;;
5299;SDS011;2672;42.670;23.258;2023-02-21T03:56:23;1.70;;;1.60;;
5299;SDS011;2672;42.670;23.258;2023-02-21T03:58:48;2.10;;;1.60;;
5299;SDS011;2672;42.670;23.258;2023-02-21T04:01:14;3.40;;;1.90;;
5299;SDS011;2672;42.670;23.258;2023-02-21T04:03:39;1.93;;;1.60;;
5299;SDS011;2672;42.670;23.258;2023-02-21T04:06:04;2.90;;;2.07;;
5299;SDS011;2672;42.670;23.258;2023-02-21T04:08:30;5.80;;;2.40;;
5299;SDS011;2672;42.670;23.258;2023-02-21T04:10:55;2.53;;;2.13;;
5299;SDS011;2672;42.670;23.258;2023-02-21T04:13:20;3.83;;;3.43;;
5299;SDS011;2672;42.670;23.258;2023-02-21T04:15:47;5.50;;;3.40;;
5299;SDS011;2672;42.670;23.258;2023-02-21T04:18:13;4.97;;;3.67;;
5299;SDS011;2672;42.670;23.258;2023-02-21T04:20:38;4.70;;;2.80;;
5299;SDS011;2672;42.670;23.258;2023-02-21T04:23:03;6.37;;;2.53;;
5299;SDS011;2672;42.670;23.258;2023-02-21T04:25:28;12.53;;;2.93;;
5299;SDS011;2672;42.670;23.258;2023-02-21T04:27:54;9.03;;;2.70;;
5299;SDS011;2672;42.670;23.258;2023-02-21T04:30:19;6.80;;;4.17;;
5299;SDS011;2672;42.670;23.258;2023-02-21T04:32:44;7.67;;;3.17;;
5299;SDS011;2672;42.670;23.258;2023-02-21T04:35:10;5.43;;;3.13;;
5299;SDS011;2672;42.670;23.258;2023-02-21T04:37:35;4.60;;;2.80;;
5299;SDS011;2672;42.670;23.258;2023-02-21T04:40:00;9.03;;;2.30;;
5299;SDS011;2672;42.670;23.258;2023-02-21T04:42:26;6.07;;;4.03;;
5299;SDS011;2672;42.670;23.258;2023-02-21T04:44:51;3.90;;;2.90;;
5299;SDS011;2672;42.670;23.258;2023-02-21T04:47:16;9.30;;;3.50;;
5299;SDS011;2672;42.670;23.258;2023-02-21T04:49:42;8.10;;;3.87;;
5299;SDS011;2672;42.670;23.258;2023-02-21T04:52:07;3.70;;;2.53;;
5299;SDS011;2672;42.670;23.258;2023-02-21T04:54:32;4.47;;;3.20;;
5299;SDS011;2672;42.670;23.258;2023-02-21T04:56:58;6.33;;;2.83;;
5299;SDS011;2672;42.670;23.258;2023-02-21T04:59:23;8.63;;;3.50;;
5299;SDS011;2672;42.670;23.258;2023-02-21T05:01:49;3.90;;;3.33;;
5299;SDS011;2672;42.670;23.258;2023-02-21T05:04:14;3.37;;;2.40;;
5299;SDS011;2672;42.670;23.258;2023-02-21T05:06:39;3.93;;;3.47;;
5299;SDS011;2672;42.670;23.258;2023-02-21T05:09:04;6.30;;;3.37;;
5299;SDS011;2672;42.670;23.258;2023-02-21T05:11:31;4.93;;;2.90;;
5299;SDS011;2672;42.670;23.258;2023-02-21T05:13:58;12.32;;;3.65;;
5299;SDS011;2672;42.670;23.258;2023-02-21T05:16:23;5.40;;;2.60;;
5299;SDS011;2672;42.670;23.258;2023-02-21T05:18:49;7.57;;;3.17;;
5299;SDS011;2672;42.670;23.258;2023-02-21T05:21:15;7.30;;;3.50;;
5299;SDS011;2672;42.670;23.258;2023-02-21T05:23:40;4.37;;;3.20;;
5299;SDS011;2672;42.670;23.258;2023-02-21T05:26:10;3.70;;;3.00;;
5299;SDS011;2672;42.670;23.258;2023-02-21T05:28:36;6.30;;;2.70;;
5299;SDS011;2672;42.670;23.258;2023-02-21T05:31:01;5.17;;;2.07;;
5299;SDS011;2672;42.670;23.258;2023-02-21T05:33:27;4.77;;;2.60;;
5299;SDS011;2672;42.670;23.258;2023-02-21T05:35:52;4.20;;;2.70;;
5299;SDS011;2672;42.670;23.258;2023-02-21T05:38:18;5.53;;;2.80;;
5299;SDS011;2672;42.670;23.258;2023-02-21T05:40:44;5.30;;;3.70;;
5299;SDS011;2672;42.670;23.258;2023-02-21T05:43:09;5.33;;;3.00;;
5299;SDS011;2672;42.670;23.258;2023-02-21T05:45:35;9.00;;;3.30;;
5299;SDS011;2672;42.670;23.258;2023-02-21T05:48:00;5.63;;;2.50;;
5299;SDS011;2672;42.670;23.258;2023-02-21T05:50:26;6.23;;;2.83;;
5299;SDS011;2672;42.670;23.258;2023-02-21T05:52:52;8.70;;;3.27;;
5299;SDS011;2672;42.670;23.258;2023-02-21T05:55:17;10.93;;;2.53;;
5299;SDS011;2672;42.670;23.258;2023-02-21T05:57:43;5.13;;;2.50;;
5299;SDS011;2672;42.670;23.258;2023-02-21T06:02:39;7.83;;;3.53;;
5299;SDS011;2672;42.670;23.258;2023-02-21T06:05:05;9.40;;;3.73;;
5299;SDS011;2672;42.670;23.258;2023-02-21T06:07:30;8.10;;;4.07;;
5299;SDS011;2672;42.670;23.258;2023-02-21T06:09:55;8.90;;;4.80;;
5299;SDS011;2672;42.670;23.258;2023-02-21T06:12:21;9.50;;;4.10;;
5299;SDS011;2672;42.670;23.258;2023-02-21T06:14:46;11.10;;;4.20;;
5299;SDS011;2672;42.670;23.258;2023-02-21T06:17:11;6.70;;;4.20;;
5299;SDS011;2672;42.670;23.258;2023-02-21T06:19:36;9.97;;;4.10;;
5299;SDS011;2672;42.670;23.258;2023-02-21T06:22:02;8.43;;;4.23;;
5299;SDS011;2672;42.670;23.258;2023-02-21T06:24:27;12.97;;;4.73;;
5299;SDS011;2672;42.670;23.258;2023-02-21T06:26:52;15.20;;;5.10;;
5299;SDS011;2672;42.670;23.258;2023-02-21T06:29:17;5.70;;;4.07;;
5299;SDS011;2672;42.670;23.258;2023-02-21T06:31:43;8.80;;;4.40;;
5299;SDS011;2672;42.670;23.258;2023-02-21T06:34:08;8.93;;;4.67;;
5299;SDS011;2672;42.670;23.258;2023-02-21T06:36:33;7.13;;;4.03;;
5299;SDS011;2672;42.670;23.258;2023-02-21T06:38:59;7.03;;;4.10;;
5299;SDS011;2672;42.670;23.258;2023-02-21T06:41:26;6.57;;;4.80;;
5299;SDS011;2672;42.670;23.258;2023-02-21T06:43:52;7.93;;;4.17;;
5299;SDS011;2672;42.670;23.258;2023-02-21T06:46:19;6.37;;;4.43;;
5299;SDS011;2672;42.670;23.258;2023-02-21T06:48:44;9.30;;;3.93;;
5299;SDS011;2672;42.670;23.258;2023-02-21T06:51:09;10.83;;;4.47;;
5299;SDS011;2672;42.670;23.258;2023-02-21T06:53:36;13.33;;;6.33;;
5299;SDS011;2672;42.670;23.258;2023-02-21T06:56:01;10.50;;;4.23;;
5299;SDS011;2672;42.670;23.258;2023-02-21T06:58:26;10.53;;;4.77;;
5299;SDS011;2672;42.670;23.258;2023-02-21T07:00:52;8.07;;;3.87;;
5299;SDS011;2672;42.670;23.258;2023-02-21T07:03:17;17.23;;;4.40;;
5299;SDS011;2672;42.670;23.258;2023-02-21T07:05:42;20.50;;;4.80;;
5299;SDS011;2672;42.670;23.258;2023-02-21T07:08:08;9.97;;;4.63;;
5299;SDS011;2672;42.670;23.258;2023-02-21T07:10:33;9.10;;;4.90;;
5299;SDS011;2672;42.670;23.258;2023-02-21T07:12:58;14.23;;;5.37;;
5299;SDS011;2672;42.670;23.258;2023-02-21T07:15:23;11.23;;;5.83;;
5299;SDS011;2672;42.670;23.258;2023-02-21T07:17:49;9.70;;;4.50;;
5299;SDS011;2672;42.670;23.258;2023-02-21T07:20:14;8.80;;;4.40;;
5299;SDS011;2672;42.670;23.258;2023-02-21T07:22:39;7.60;;;4.13;;
5299;SDS011;2672;42.670;23.258;2023-02-21T07:25:05;19.67;;;5.07;;
5299;SDS011;2672;42.670;23.258;2023-02-21T07:27:30;10.43;;;4.27;;
5299;SDS011;2672;42.670;23.258;2023-02-21T07:29:55;10.07;;;5.20;;
5299;SDS011;2672;42.670;23.258;2023-02-21T07:32:21;11.77;;;5.27;;
5299;SDS011;2672;42.670;23.258;2023-02-21T07:34:46;11.00;;;5.20;;
5299;SDS011;2672;42.670;23.258;2023-02-21T07:37:12;13.23;;;4.53;;
5299;SDS011;2672;42.670;23.258;2023-02-21T07:39:37;13.13;;;6.07;;
5299;SDS011;2672;42.670;23.258;2023-02-21T07:42:03;4.23;;;2.60;;
5299;SDS011;2672;42.670;23.258;2023-02-21T07:44:28;9.67;;;3.53;;
5299;SDS011;2672;42.670;23.258;2023-02-21T07:46:54;7.63;;;3.10;;
5299;SDS011;2672;42.670;23.258;2023-02-21T07:49:20;6.53;;;2.87;;
5299;SDS011;2672;42.670;23.258;2023-02-21T07:51:45;9.13;;;4.00;;
5299;SDS011;2672;42.670;23.258;2023-02-21T07:54:10;7.60;;;3.40;;
5299;SDS011;2672;42.670;23.258;2023-02-21T07:56:41;5.70;;;2.73;;
5299;SDS011;2672;42.670;23.258;2023-02-21T07:59:06;5.13;;;2.70;;
5299;SDS011;2672;42.670;23.258;2023-02-21T08:01:31;8.40;;;3.50;;
5299;SDS011;2672;42.670;23.258;2023-02-21T08:03:56;3.50;;;2.20;;
5299;SDS011;2672;42.670;23.258;2023-02-21T08:06:21;10.00;;;4.80;;
5299;SDS011;2672;42.670;23.258;2023-02-21T08:08:47;3.47;;;2.80;;
5299;SDS011;2672;42.670;23.258;2023-02-21T08:11:12;8.10;;;4.87;;
5299;SDS011;2672;42.670;23.258;2023-02-21T08:13:37;12.17;;;6.50;;
5299;SDS011;2672;42.670;23.258;2023-02-21T08:16:03;8.63;;;3.17;;
5299;SDS011;2672;42.670;23.258;2023-02-21T08:18:28;11.90;;;7.33;;
5299;SDS011;2672;42.670;23.258;2023-02-21T08:20:54;8.90;;;4.93;;
5299;SDS011;2672;42.670;23.258;2023-02-21T08:23:19;8.43;;;4.93;;
5299;SDS011;2672;42.670;23.258;2023-02-21T08:25:45;6.53;;;3.80;;
5299;SDS011;2672;42.670;23.258;2023-02-21T08:28:11;3.13;;;1.83;;
5299;SDS011;2672;42.670;23.258;2023-02-21T08:30:36;4.00;;;2.40;;
5299;SDS011;2672;42.670;23.258;2023-02-21T08:33:01;9.57;;;5.00;;
5299;SDS011;2672;42.670;23.258;2023-02-21T08:35:27;10.90;;;5.10;;
5299;SDS011;2672;42.670;23.258;2023-02-21T08:37:52;16.40;;;6.43;;
5299;SDS011;2672;42.670;23.258;2023-02-21T08:40:21;15.40;;;6.63;;
5299;SDS011;2672;42.670;23.258;2023-02-21T08:42:50;18.30;;;6.77;;
5299;SDS011;2672;42.670;23.258;2023-02-21T08:45:16;16.37;;;5.37;;
5299;SDS011;2672;42.670;23.258;2023-02-21T08:47:42;19.97;;;6.30;;
5299;SDS011;2672;42.670;23.258;2023-02-21T08:50:07;16.40;;;5.57;;
5299;SDS011;2672;42.670;23.258;2023-02-21T08:52:32;12.20;;;5.80;;
5299;SDS011;2672;42.670;23.258;2023-02-21T08:54:58;13.67;;;6.17;;
5299;SDS011;2672;42.670;23.258;2023-02-21T08:57:23;12.17;;;5.20;;
5299;SDS011;2672;42.670;23.258;2023-02-21T08:59:48;13.90;;;5.50;;
5299;SDS011;2672;42.670;23.258;2023-02-21T09:02:17;17.60;;;6.03;;
5299;SDS011;2672;42.670;23.258;2023-02-21T09:04:43;20.50;;;6.47;;
5299;SDS011;2672;42.670;23.258;2023-02-21T09:07:10;17.70;;;6.30;;
5299;SDS011;2672;42.670;23.258;2023-02-21T09:09:36;9.83;;;5.80;;
5299;SDS011;2672;42.670;23.258;2023-02-21T09:12:01;14.13;;;6.37;;
5299;SDS011;2672;42.670;23.258;2023-02-21T09:14:27;16.87;;;5.53;;
5299;SDS011;2672;42.670;23.258;2023-02-21T09:16:52;15.80;;;6.07;;
5299;SDS011;2672;42.670;23.258;2023-02-21T09:19:17;15.40;;;5.90;;
5299;SDS011;2672;42.670;23.258;2023-02-21T09:21:46;23.03;;;6.00;;
5299;SDS011;2672;42.670;23.258;2023-02-21T09:24:11;12.50;;;5.77;;
5299;SDS011;2672;42.670;23.258;2023-02-21T09:26:36;11.03;;;5.23;;
5299;SDS011;2672;42.670;23.258;2023-02-21T09:29:02;10.37;;;5.80;;
5299;SDS011;2672;42.670;23.258;2023-02-21T09:31:27;20.40;;;5.80;;
5299;SDS011;2672;42.670;23.258;2023-02-21T09:33:52;10.90;;;5.33;;
5299;SDS011;2672;42.670;23.258;2023-02-21T09:36:17;29.63;;;6.23;;
5299;SDS011;2672;42.670;23.258;2023-02-21T09:38:48;16.20;;;4.70;;
5299;SDS011;2672;42.670;23.258;2023-02-21T09:41:13;18.40;;;4.90;;
5299;SDS011;2672;42.670;23.258;2023-02-21T09:43:42;10.00;;;4.47;;
5299;SDS011;2672;42.670;23.258;2023-02-21T09:46:32;10.37;;;5.80;;
5299;SDS011;2672;42.670;23.258;2023-02-21T09:48:55;12.50;;;5.13;;
5299;SDS011;2672;42.670;23.258;2023-02-21T09:51:20;14.23;;;5.20;;
5299;SDS011;2672;42.670;23.258;2023-02-21T09:53:46;20.77;;;6.77;;
5299;SDS011;2672;42.670;23.258;2023-02-21T09:58:38;4.70;;;2.10;;
5299;SDS011;2672;42.670;23.258;2023-02-21T10:01:07;3.80;;;2.10;;
5299;SDS011;2672;42.670;23.258;2023-02-21T10:03:41;1.80;;;1.60;;
5299;SDS011;2672;42.670;23.258;2023-02-21T10:06:10;3.40;;;1.90;;
5299;SDS011;2672;42.670;23.258;2023-02-21T10:08:52;7.70;;;2.60;;
5299;SDS011;2672;42.670;23.258;2023-02-21T10:11:28;2.47;;;1.53;;
5299;SDS011;2672;42.670;23.258;2023-02-21T10:16:39;3.90;;;1.63;;
5299;SDS011;2672;42.670;23.258;2023-02-21T10:19:25;3.73;;;1.60;;
5299;SDS011;2672;42.670;23.258;2023-02-21T10:21:55;2.40;;;1.50;;
5299;SDS011;2672;42.670;23.258;2023-02-21T10:24:23;3.50;;;2.23;;
5299;SDS011;2672;42.670;23.258;2023-02-21T10:26:53;1.57;;;1.20;;
5299;SDS011;2672;42.670;23.258;2023-02-21T10:29:25;6.73;;;1.63;;
5299;SDS011;2672;42.670;23.258;2023-02-21T10:31:59;5.23;;;1.40;;
5299;SDS011;2672;42.670;23.258;2023-02-21T10:34:27;2.90;;;2.00;;
5299;SDS011;2672;42.670;23.258;2023-02-21T10:36:57;3.10;;;1.70;;
5299;SDS011;2672;42.670;23.258;2023-02-21T10:39:45;1.80;;;1.30;;
5299;SDS011;2672;42.670;23.258;2023-02-21T10:42:13;1.83;;;1.30;;
5299;SDS011;2672;42.670;23.258;2023-02-21T10:44:42;4.53;;;1.70;;
5299;SDS011;2672;42.670;23.258;2023-02-21T10:49:55;3.53;;;1.43;;
5299;SDS011;2672;42.670;23.258;2023-02-21T10:52:23;6.20;;;2.73;;
5299;SDS011;2672;42.670;23.258;2023-02-21T10:57:30;1.63;;;1.50;;
5299;SDS011;2672;42.670;23.258;2023-02-21T10:59:55;1.50;;;1.20;;
5299;SDS011;2672;42.670;23.258;2023-02-21T11:02:25;11.23;;;2.70;;
5299;SDS011;2672;42.670;23.258;2023-02-21T11:04:52;3.17;;;1.87;;
5299;SDS011;2672;42.670;23.258;2023-02-21T11:07:19;4.90;;;2.20;;
5299;SDS011;2672;42.670;23.258;2023-02-21T11:09:45;8.90;;;2.70;;
5299;SDS011;2672;42.670;23.258;2023-02-21T11:14:39;1.83;;;1.50;;
5299;SDS011;2672;42.670;23.258;2023-02-21T11:19:40;4.10;;;2.33;;
5299;SDS011;2672;42.670;23.258;2023-02-21T11:22:05;3.23;;;1.47;;
5299;SDS011;2672;42.670;23.258;2023-02-21T11:24:33;2.30;;;1.37;;
5299;SDS011;2672;42.670;23.258;2023-02-21T11:26:58;1.47;;;1.27;;
5299;SDS011;2672;42.670;23.258;2023-02-21T11:29:24;1.40;;;1.23;;
5299;SDS011;2672;42.670;23.258;2023-02-21T11:31:51;3.90;;;1.60;;
5299;SDS011;2672;42.670;23.258;2023-02-21T11:34:17;3.73;;;1.73;;
5299;SDS011;2672;42.670;23.258;2023-02-21T11:36:44;5.50;;;2.43;;
5299;SDS011;2672;42.670;23.258;2023-02-21T11:42:02;4.70;;;1.53;;
5299;SDS011;2672;42.670;23.258;2023-02-21T11:49:35;10.90;;;1.47;;
5299;SDS011;2672;42.670;23.258;2023-02-21T11:52:03;26.37;;;2.70;;
5299;SDS011;2672;42.670;23.258;2023-02-21T11:54:30;4.03;;;2.50;;
5299;SDS011;2672;42.670;23.258;2023-02-21T11:57:39;1.37;;;1.00;;
5299;SDS011;2672;42.670;23.258;2023-02-21T12:00:33;1.97;;;1.20;;
5299;SDS011;2672;42.670;23.258;2023-02-21T12:05:34;4.13;;;1.60;;
5299;SDS011;2672;42.670;23.258;2023-02-21T12:15:25;4.63;;;1.90;;
5299;SDS011;2672;42.670;23.258;2023-02-21T12:23:10;3.43;;;2.10;;
5299;SDS011;2672;42.670;23.258;2023-02-21T12:25:56;3.10;;;1.87;;
5299;SDS011;2672;42.670;23.258;2023-02-21T12:40:52;3.83;;;2.07;;
5299;SDS011;2672;42.670;23.258;2023-02-21T12:51:03;3.53;;;1.80;;
5299;SDS011;2672;42.670;23.258;2023-02-21T12:56:05;3.50;;;1.80;;
5299;SDS011;2672;42.670;23.258;2023-02-21T12:58:39;4.67;;;2.00;;
5299;SDS011;2672;42.670;23.258;2023-02-21T13:01:08;4.20;;;1.80;;
5299;SDS011;2672;42.670;23.258;2023-02-21T13:03:39;6.47;;;1.67;;
5299;SDS011;2672;42.670;23.258;2023-02-21T13:11:39;8.40;;;3.33;;
5299;SDS011;2672;42.670;23.258;2023-02-21T13:16:57;5.17;;;2.07;;
5299;SDS011;2672;42.670;23.258;2023-02-21T13:19:22;7.50;;;1.80;;
5299;SDS011;2672;42.670;23.258;2023-02-21T13:27:12;2.67;;;2.00;;
5299;SDS011;2672;42.670;23.258;2023-02-21T13:29:44;10.07;;;2.00;;
5299;SDS011;2672;42.670;23.258;2023-02-21T13:32:14;6.00;;;2.37;;
5299;SDS011;2672;42.670;23.258;2023-02-21T13:37:14;5.63;;;1.70;;
5299;SDS011;2672;42.670;23.258;2023-02-21T13:39:40;4.70;;;1.50;;
5299;SDS011;2672;42.670;23.258;2023-02-21T13:42:15;1.83;;;1.20;;
5299;SDS011;2672;42.670;23.258;2023-02-21T13:44:43;11.43;;;2.20;;
5299;SDS011;2672;42.670;23.258;2023-02-21T13:47:13;2.53;;;1.50;;
5299;SDS011;2672;42.670;23.258;2023-02-21T13:57:31;2.67;;;1.50;;
5299;SDS011;2672;42.670;23.258;2023-02-21T13:59:56;3.70;;;1.80;;
5299;SDS011;2672;42.670;23.258;2023-02-21T14:02:26;1.73;;;1.10;;
5299;SDS011;2672;42.670;23.258;2023-02-21T14:07:38;2.50;;;1.60;;
5299;SDS011;2672;42.670;23.258;2023-02-21T14:10:04;2.10;;;1.23;;
5299;SDS011;2672;42.670;23.258;2023-02-21T14:12:30;4.27;;;1.50;;
5299;SDS011;2672;42.670;23.258;2023-02-21T14:15:03;12.53;;;2.03;;
5299;SDS011;2672;42.670;23.258;2023-02-21T14:17:33;2.20;;;1.50;;
5299;SDS011;2672;42.670;23.258;2023-02-21T14:20:00;3.57;;;1.87;;
5299;SDS011;2672;42.670;23.258;2023-02-21T14:22:27;1.50;;;1.20;;
5299;SDS011;2672;42.670;23.258;2023-02-21T14:27:48;1.53;;;1.20;;
5299;SDS011;2672;42.670;23.258;2023-02-21T14:30:15;5.57;;;2.03;;
5299;SDS011;2672;42.670;23.258;2023-02-21T14:32:41;4.00;;;1.80;;
5299;SDS011;2672;42.670;23.258;2023-02-21T14:38:05;2.33;;;1.33;;
5299;SDS011;2672;42.670;23.258;2023-02-21T14:49:01;3.43;;;1.43;;
5299;SDS011;2672;42.670;23.258;2023-02-21T14:59:48;5.50;;;1.47;;
5299;SDS011;2672;42.670;23.258;2023-02-21T15:04:56;2.70;;;1.33;;
5299;SDS011;2672;42.670;23.258;2023-02-21T15:12:45;5.00;;;1.20;;
5299;SDS011;2672;42.670;23.258;2023-02-21T15:15:15;3.43;;;2.00;;
5299;SDS011;2672;42.670;23.258;2023-02-21T15:17:41;2.43;;;1.67;;
5299;SDS011;2672;42.670;23.258;2023-02-21T15:20:16;2.20;;;1.70;;
5299;SDS011;2672;42.670;23.258;2023-02-21T15:22:41;2.87;;;1.80;;
5299;SDS011;2672;42.670;23.258;2023-02-21T15:27:33;3.70;;;1.60;;
5299;SDS011;2672;42.670;23.258;2023-02-21T15:30:12;2.93;;;1.43;;
5299;SDS011;2672;42.670;23.258;2023-02-21T15:32:38;2.83;;;1.37;;
5299;SDS011;2672;42.670;23.258;2023-02-21T15:35:09;2.80;;;2.00;;
5299;SDS011;2672;42.670;23.258;2023-02-21T15:37:36;10.37;;;2.20;;
5299;SDS011;2672;42.670;23.258;2023-02-21T15:40:04;4.03;;;2.10;;
5299;SDS011;2672;42.670;23.258;2023-02-21T15:42:36;4.00;;;1.90;;
5299;SDS011;2672;42.670;23.258;2023-02-21T15:45:04;2.47;;;2.00;;
5299;SDS011;2672;42.670;23.258;2023-02-21T15:47:31;7.00;;;3.00;;
5299;SDS011;2672;42.670;23.258;2023-02-21T15:55:11;9.50;;;3.73;;
5299;SDS011;2672;42.670;23.258;2023-02-21T15:57:36;8.50;;;4.03;;
5299;SDS011;2672;42.670;23.258;2023-02-21T16:05:44;6.00;;;2.53;;
5299;SDS011;2672;42.670;23.258;2023-02-21T16:08:11;5.00;;;3.10;;
5299;SDS011;2672;42.670;23.258;2023-02-21T16:10:38;6.67;;;2.97;;
5299;SDS011;2672;42.670;23.258;2023-02-21T16:13:05;8.20;;;2.93;;
5299;SDS011;2672;42.670;23.258;2023-02-21T16:15:31;7.93;;;3.00;;
5299;SDS011;2672;42.670;23.258;2023-02-21T16:17:58;7.70;;;3.60;;
5299;SDS011;2672;42.670;23.258;2023-02-21T16:23:06;4.60;;;2.47;;
5299;SDS011;2672;42.670;23.258;2023-02-21T16:25:52;15.90;;;5.80;;
5299;SDS011;2672;42.670;23.258;2023-02-21T16:28:18;4.67;;;2.87;;
5299;SDS011;2672;42.670;23.258;2023-02-21T16:30:43;8.33;;;4.10;;
5299;SDS011;2672;42.670;23.258;2023-02-21T16:33:08;15.90;;;4.70;;
5299;SDS011;2672;42.670;23.258;2023-02-21T16:35:34;22.17;;;7.10;;
5299;SDS011;2672;42.670;23.258;2023-02-21T16:38:00;8.73;;;5.30;;
5299;SDS011;2672;42.670;23.258;2023-02-21T16:40:26;8.30;;;5.20;;
5299;SDS011;2672;42.670;23.258;2023-02-21T16:42:53;17.93;;;6.17;;
5299;SDS011;2672;42.670;23.258;2023-02-21T16:45:19;11.60;;;5.63;;
5299;SDS011;2672;42.670;23.258;2023-02-21T16:47:45;6.13;;;3.83;;
5299;SDS011;2672;42.670;23.258;2023-02-21T16:50:15;8.50;;;4.50;;
5299;SDS011;2672;42.670;23.258;2023-02-21T16:52:40;7.47;;;4.57;;
5299;SDS011;2672;42.670;23.258;2023-02-21T16:55:06;6.03;;;3.87;;
5299;SDS011;2672;42.670;23.258;2023-02-21T16:57:31;8.10;;;3.93;;
5299;SDS011;2672;42.670;23.258;2023-02-21T16:59:56;8.90;;;4.17;;
5299;SDS011;2672;42.670;23.258;2023-02-21T17:02:21;7.23;;;3.93;;
5299;SDS011;2672;42.670;23.258;2023-02-21T17:04:48;5.73;;;3.13;;
5299;SDS011;2672;42.670;23.258;2023-02-21T17:07:14;5.73;;;3.60;;
5299;SDS011;2672;42.670;23.258;2023-02-21T17:09:39;24.20;;;9.77;;
5299;SDS011;2672;42.670;23.258;2023-02-21T17:12:05;31.83;;;10.77;;
5299;SDS011;2672;42.670;23.258;2023-02-21T17:14:31;39.70;;;17.60;;
5299;SDS011;2672;42.670;23.258;2023-02-21T17:16:57;38.30;;;15.50;;
5299;SDS011;2672;42.670;23.258;2023-02-21T17:19:22;36.60;;;15.80;;
5299;SDS011;2672;42.670;23.258;2023-02-21T17:21:48;34.53;;;13.90;;
5299;SDS011;2672;42.670;23.258;2023-02-21T17:24:14;45.63;;;13.83;;
5299;SDS011;2672;42.670;23.258;2023-02-21T17:26:40;32.13;;;14.00;;
5299;SDS011;2672;42.670;23.258;2023-02-21T17:29:06;26.40;;;11.90;;
5299;SDS011;2672;42.670;23.258;2023-02-21T17:31:31;33.50;;;14.07;;
5299;SDS011;2672;42.670;23.258;2023-02-21T17:33:57;19.70;;;8.70;;
5299;SDS011;2672;42.670;23.258;2023-02-21T17:36:23;23.50;;;8.00;;
5299;SDS011;2672;42.670;23.258;2023-02-21T17:38:49;30.10;;;9.37;;
5299;SDS011;2672;42.670;23.258;2023-02-21T17:41:14;29.43;;;8.00;;
5299;SDS011;2672;42.670;23.258;2023-02-21T17:43:40;16.10;;;7.93;;
5299;SDS011;2672;42.670;23.258;2023-02-21T17:46:09;9.77;;;4.40;;
5299;SDS011;2672;42.670;23.258;2023-02-21T17:48:36;29.00;;;10.30;;
5299;SDS011;2672;42.670;23.258;2023-02-21T17:51:02;30.13;;;11.10;;
5299;SDS011;2672;42.670;23.258;2023-02-21T17:53:28;32.73;;;12.63;;
5299;SDS011;2672;42.670;23.258;2023-02-21T17:55:54;31.50;;;14.97;;
5299;SDS011;2672;42.670;23.258;2023-02-21T17:58:25;33.93;;;13.43;;